Phoenix, Arizona
Current Conditions -  °F | °C
As of 1:51 PM on Wednesday 17 Dec 2014 (Local Time) from KPHX Reporting Station
Overcast Overcast  
Wind Chill: 58°   Ceiling: 6500
Heat Index: 58°   Visibility: 10mi
Dew Point: 45°   Wind: 0mph
Humidity: 62%   Direction: NA
Pressure: 30.05"   Gusts: NA
Location:  33.45°N, 112.08°W
Report Text: KPHX 172051Z 00000KT 10SM SCT030 BKN065 OVC100 14/07 A3005 RMK AO2 SLP168 T01440072 56016
Loading
Personal Weather Stations






























Interactive Weather Map New forecast layout! Learn more

10-Day Weather Forecast

Advertisements
Track Severe Weather on mobile